Housatonic River @ Stevenson, Ct

Housatonic River at Stevenson
 Total Drainage Area: 1,545 sq. miles 
 Drainage Area Controlled by Corps Dams: 0 sq. miles (0%) 
 Warning Flow/Stage: 13,700 cfs / 11.0 feet 
 Flood Flow/Stage: 27,230 cfs / 15.0 feet 
Date Time
(Eastern)
Stage
(ft)
Flow
(cfs)
CSM
(cfs / sq. mi.)
Jan-31 03:30 pm 7.82 6,262 4.1
Jan-31 02:30 pm 7.83 6,280 4.1
Jan-31 01:30 pm 8.05 6,697 4.3
Jan-31 12:30 pm 8.17 6,934 4.5
Jan-31 11:30 am 8.17 6,934 4.5
Jan-31 10:30 am 8.17 6,934 4.5
Jan-31 09:30 am 8.23 7,054 4.6
Jan-31 08:30 am 8.27 7,134 4.6
Jan-31 07:30 am 8.27 7,134 4.6
Jan-31 06:30 am 8.27 7,134 4.6
Jan-31 05:30 am 8.28 7,155 4.6
Jan-31 04:30 am 8.29 7,175 4.6
Jan-31 03:30 am 8.28 7,155 4.6
Jan-31 02:30 am 8.29 7,175 4.6
Jan-31 01:30 am 8.25 7,094 4.6
Jan-31 12:30 am 8.21 7,014 4.5
Jan-30 11:30 pm 8.21 7,014 4.5
Jan-30 10:30 pm 8.21 7,014 4.5
Jan-30 09:30 pm 8.17 6,934 4.5
Jan-30 08:30 pm 8.13 6,854 4.4
Jan-30 07:30 pm 8.13 6,854 4.4
Jan-30 06:30 pm 8.13 6,854 4.4
Jan-30 05:30 pm 8.14 6,874 4.5
Jan-30 04:30 pm 8.13 6,854 4.4
Jan-30 03:30 pm 8.12 6,835 4.4
Report Generated January 31, 2023 03:56 pm